sensor_id;sensor_type;location;lat;lon;timestamp;temperature;humidity
46676;DHT22;32412;51.478;5.694;2024-03-02T00:01:10;9.20;99.90
46676;DHT22;32412;51.478;5.694;2024-03-02T00:03:45;9.30;99.90
46676;DHT22;32412;51.478;5.694;2024-03-02T00:06:13;9.30;99.90
46676;DHT22;32412;51.478;5.694;2024-03-02T00:08:42;9.30;99.90
46676;DHT22;32412;51.478;5.694;2024-03-02T00:11:14;9.40;99.90
46676;DHT22;32412;51.478;5.694;2024-03-02T00:13:43;9.30;99.90
46676;DHT22;32412;51.478;5.694;2024-03-02T00:16:09;9.40;99.90
46676;DHT22;32412;51.478;5.694;2024-03-02T00:18:36;9.50;99.90
46676;DHT22;32412;51.478;5.694;2024-03-02T00:21:06;9.50;99.90
46676;DHT22;32412;51.478;5.694;2024-03-02T00:23:36;9.60;99.90
46676;DHT22;32412;51.478;5.694;2024-03-02T00:26:02;9.60;99.90
46676;DHT22;32412;51.478;5.694;2024-03-02T00:28:36;9.60;99.90
46676;DHT22;32412;51.478;5.694;2024-03-02T00:31:25;9.60;99.90
46676;DHT22;32412;51.478;5.694;2024-03-02T00:34:01;9.60;99.90
46676;DHT22;32412;51.478;5.694;2024-03-02T00:36:34;9.60;99.90
46676;DHT22;32412;51.478;5.694;2024-03-02T00:39:01;9.60;99.90
46676;DHT22;32412;51.478;5.694;2024-03-02T00:41:27;9.60;99.90
46676;DHT22;32412;51.478;5.694;2024-03-02T00:47:21;9.00;99.90
46676;DHT22;32412;51.478;5.694;2024-03-02T00:49:47;8.70;99.90
46676;DHT22;32412;51.478;5.694;2024-03-02T00:52:13;8.60;99.90
46676;DHT22;32412;51.478;5.694;2024-03-02T00:58:02;8.40;99.90
46676;DHT22;32412;51.478;5.694;2024-03-02T01:00:42;8.30;99.90
46676;DHT22;32412;51.478;5.694;2024-03-02T01:09:52;8.10;99.90
46676;DHT22;32412;51.478;5.694;2024-03-02T01:15:43;7.90;99.90
46676;DHT22;32412;51.478;5.694;2024-03-02T01:21:37;7.80;99.90
46676;DHT22;32412;51.478;5.694;2024-03-02T01:37:42;7.90;99.90
46676;DHT22;32412;51.478;5.694;2024-03-02T01:40:14;7.80;99.90
46676;DHT22;32412;51.478;5.694;2024-03-02T01:42:47;7.80;99.90
46676;DHT22;32412;51.478;5.694;2024-03-02T01:45:21;7.90;99.90
46676;DHT22;32412;51.478;5.694;2024-03-02T01:48:07;7.80;99.90
46676;DHT22;32412;51.478;5.694;2024-03-02T01:50:33;7.80;99.90
46676;DHT22;32412;51.478;5.694;2024-03-02T01:53:02;7.80;99.90
46676;DHT22;32412;51.478;5.694;2024-03-02T01:55:33;7.80;99.90
46676;DHT22;32412;51.478;5.694;2024-03-02T01:58:00;7.80;99.90
46676;DHT22;32412;51.478;5.694;2024-03-02T02:00:26;7.80;99.90
46676;DHT22;32412;51.478;5.694;2024-03-02T02:02:53;7.80;99.90
46676;DHT22;32412;51.478;5.694;2024-03-02T02:05:23;7.80;99.90
46676;DHT22;32412;51.478;5.694;2024-03-02T02:07:51;7.80;99.90
46676;DHT22;32412;51.478;5.694;2024-03-02T02:16:42;7.70;99.90
46676;DHT22;32412;51.478;5.694;2024-03-02T02:19:08;7.70;99.90
46676;DHT22;32412;51.478;5.694;2024-03-02T02:21:35;7.60;99.90
46676;DHT22;32412;51.478;5.694;2024-03-02T02:24:04;7.60;99.90
46676;DHT22;32412;51.478;5.694;2024-03-02T02:26:33;7.60;99.90
46676;DHT22;32412;51.478;5.694;2024-03-02T02:29:02;7.50;99.90
46676;DHT22;32412;51.478;5.694;2024-03-02T02:31:37;7.50;99.90
46676;DHT22;32412;51.478;5.694;2024-03-02T02:37:25;7.50;99.90
46676;DHT22;32412;51.478;5.694;2024-03-02T02:39:51;7.50;99.90
46676;DHT22;32412;51.478;5.694;2024-03-02T02:42:16;7.50;99.90
46676;DHT22;32412;51.478;5.694;2024-03-02T02:44:46;7.50;99.90
46676;DHT22;32412;51.478;5.694;2024-03-02T02:47:16;7.50;99.90
46676;DHT22;32412;51.478;5.694;2024-03-02T02:49:42;7.50;99.90
46676;DHT22;32412;51.478;5.694;2024-03-02T02:52:18;7.50;99.90
46676;DHT22;32412;51.478;5.694;2024-03-02T02:54:44;7.50;99.90
46676;DHT22;32412;51.478;5.694;2024-03-02T02:57:13;7.60;99.90
46676;DHT22;32412;51.478;5.694;2024-03-02T02:59:42;7.60;99.90
46676;DHT22;32412;51.478;5.694;2024-03-02T03:02:08;7.50;99.90
46676;DHT22;32412;51.478;5.694;2024-03-02T03:04:44;7.60;99.90
46676;DHT22;32412;51.478;5.694;2024-03-02T03:07:12;7.60;99.90
46676;DHT22;32412;51.478;5.694;2024-03-02T03:09:38;7.70;99.90
46676;DHT22;32412;51.478;5.694;2024-03-02T03:12:07;7.60;99.90
46676;DHT22;32412;51.478;5.694;2024-03-02T03:14:50;7.60;99.90
46676;DHT22;32412;51.478;5.694;2024-03-02T03:17:24;7.60;99.90
46676;DHT22;32412;51.478;5.694;2024-03-02T03:19:53;7.60;99.90
46676;DHT22;32412;51.478;5.694;2024-03-02T03:22:22;7.60;99.90
46676;DHT22;32412;51.478;5.694;2024-03-02T03:24:48;7.60;99.90
46676;DHT22;32412;51.478;5.694;2024-03-02T03:30:45;7.60;99.90
46676;DHT22;32412;51.478;5.694;2024-03-02T03:33:13;7.60;99.90
46676;DHT22;32412;51.478;5.694;2024-03-02T03:35:42;7.60;99.90
46676;DHT22;32412;51.478;5.694;2024-03-02T03:38:12;7.60;99.90
46676;DHT22;32412;51.478;5.694;2024-03-02T03:40:38;7.60;99.90
46676;DHT22;32412;51.478;5.694;2024-03-02T03:43:04;7.60;99.90
46676;DHT22;32412;51.478;5.694;2024-03-02T03:45:32;7.60;99.90
46676;DHT22;32412;51.478;5.694;2024-03-02T03:48:00;7.60;99.90
46676;DHT22;32412;51.478;5.694;2024-03-02T03:50:26;7.60;99.90
46676;DHT22;32412;51.478;5.694;2024-03-02T03:52:52;7.50;99.90
46676;DHT22;32412;51.478;5.694;2024-03-02T03:55:18;7.50;99.90
46676;DHT22;32412;51.478;5.694;2024-03-02T03:57:45;7.50;99.90
46676;DHT22;32412;51.478;5.694;2024-03-02T04:00:12;7.50;99.90
46676;DHT22;32412;51.478;5.694;2024-03-02T04:02:38;7.50;99.90
46676;DHT22;32412;51.478;5.694;2024-03-02T04:05:04;7.50;99.90
46676;DHT22;32412;51.478;5.694;2024-03-02T04:07:33;7.50;99.90
46676;DHT22;32412;51.478;5.694;2024-03-02T04:10:09;7.50;99.90
46676;DHT22;32412;51.478;5.694;2024-03-02T04:12:36;7.40;99.90
46676;DHT22;32412;51.478;5.694;2024-03-02T04:15:08;7.50;99.90
46676;DHT22;32412;51.478;5.694;2024-03-02T04:17:41;7.40;99.90
46676;DHT22;32412;51.478;5.694;2024-03-02T04:20:07;7.40;99.90
46676;DHT22;32412;51.478;5.694;2024-03-02T04:22:33;7.40;99.90
46676;DHT22;32412;51.478;5.694;2024-03-02T04:25:03;7.40;99.90
46676;DHT22;32412;51.478;5.694;2024-03-02T04:27:30;7.30;99.90
46676;DHT22;32412;51.478;5.694;2024-03-02T04:30:04;7.20;99.90
46676;DHT22;32412;51.478;5.694;2024-03-02T04:32:36;7.20;99.90
46676;DHT22;32412;51.478;5.694;2024-03-02T04:35:05;7.20;99.90
46676;DHT22;32412;51.478;5.694;2024-03-02T04:37:34;7.10;99.90
46676;DHT22;32412;51.478;5.694;2024-03-02T04:40:10;7.00;99.90
46676;DHT22;32412;51.478;5.694;2024-03-02T04:42:43;7.00;99.90
46676;DHT22;32412;51.478;5.694;2024-03-02T04:45:09;7.00;99.90
46676;DHT22;32412;51.478;5.694;2024-03-02T04:47:37;7.00;99.90
46676;DHT22;32412;51.478;5.694;2024-03-02T04:50:03;7.00;99.90
46676;DHT22;32412;51.478;5.694;2024-03-02T04:52:34;7.00;99.90
46676;DHT22;32412;51.478;5.694;2024-03-02T04:55:00;7.00;99.90
46676;DHT22;32412;51.478;5.694;2024-03-02T04:57:55;7.00;99.90
46676;DHT22;32412;51.478;5.694;2024-03-02T05:00:24;7.00;99.90
46676;DHT22;32412;51.478;5.694;2024-03-02T05:02:52;7.00;99.90
46676;DHT22;32412;51.478;5.694;2024-03-02T05:05:21;7.00;99.90
46676;DHT22;32412;51.478;5.694;2024-03-02T05:07:53;7.00;99.90
46676;DHT22;32412;51.478;5.694;2024-03-02T05:10:22;7.00;99.90
46676;DHT22;32412;51.478;5.694;2024-03-02T05:12:49;7.10;99.90
46676;DHT22;32412;51.478;5.694;2024-03-02T05:15:22;7.10;99.90
46676;DHT22;32412;51.478;5.694;2024-03-02T05:17:48;7.10;99.90
46676;DHT22;32412;51.478;5.694;2024-03-02T05:20:19;7.10;99.90
46676;DHT22;32412;51.478;5.694;2024-03-02T05:22:51;7.10;99.90
46676;DHT22;32412;51.478;5.694;2024-03-02T05:25:17;7.10;99.90
46676;DHT22;32412;51.478;5.694;2024-03-02T05:27:46;7.00;99.90
46676;DHT22;32412;51.478;5.694;2024-03-02T05:30:18;6.90;99.90
46676;DHT22;32412;51.478;5.694;2024-03-02T05:32:43;6.80;99.90
46676;DHT22;32412;51.478;5.694;2024-03-02T05:35:09;6.80;99.90
46676;DHT22;32412;51.478;5.694;2024-03-02T05:37:36;6.70;99.90
46676;DHT22;32412;51.478;5.694;2024-03-02T05:40:02;6.70;99.90
46676;DHT22;32412;51.478;5.694;2024-03-02T05:45:15;6.70;99.90
46676;DHT22;32412;51.478;5.694;2024-03-02T05:47:42;6.70;99.90
46676;DHT22;32412;51.478;5.694;2024-03-02T05:50:07;6.70;99.90
46676;DHT22;32412;51.478;5.694;2024-03-02T05:52:36;6.80;99.90
46676;DHT22;32412;51.478;5.694;2024-03-02T05:55:01;6.80;99.90
46676;DHT22;32412;51.478;5.694;2024-03-02T05:57:27;6.80;99.90
46676;DHT22;32412;51.478;5.694;2024-03-02T06:00:13;6.90;99.90
46676;DHT22;32412;51.478;5.694;2024-03-02T06:02:43;6.90;99.90
46676;DHT22;32412;51.478;5.694;2024-03-02T06:05:08;6.90;99.90
46676;DHT22;32412;51.478;5.694;2024-03-02T06:07:34;7.00;99.90
46676;DHT22;32412;51.478;5.694;2024-03-02T06:10:00;6.90;99.90
46676;DHT22;32412;51.478;5.694;2024-03-02T06:12:26;6.90;99.90
46676;DHT22;32412;51.478;5.694;2024-03-02T06:14:51;6.90;99.90
46676;DHT22;32412;51.478;5.694;2024-03-02T06:17:19;6.90;99.90
46676;DHT22;32412;51.478;5.694;2024-03-02T06:19:46;7.00;99.90
46676;DHT22;32412;51.478;5.694;2024-03-02T06:22:15;7.00;99.90
46676;DHT22;32412;51.478;5.694;2024-03-02T06:24:43;7.00;99.90
46676;DHT22;32412;51.478;5.694;2024-03-02T06:27:11;7.00;99.90
46676;DHT22;32412;51.478;5.694;2024-03-02T06:29:44;6.90;99.90
46676;DHT22;32412;51.478;5.694;2024-03-02T06:32:10;6.80;99.90
46676;DHT22;32412;51.478;5.694;2024-03-02T06:34:42;6.70;99.90
46676;DHT22;32412;51.478;5.694;2024-03-02T06:37:07;6.70;99.90
46676;DHT22;32412;51.478;5.694;2024-03-02T06:39:33;6.60;99.90
46676;DHT22;32412;51.478;5.694;2024-03-02T06:42:00;6.60;99.90
46676;DHT22;32412;51.478;5.694;2024-03-02T06:44:25;6.60;99.90
46676;DHT22;32412;51.478;5.694;2024-03-02T06:46:51;6.60;99.90
46676;DHT22;32412;51.478;5.694;2024-03-02T06:52:42;6.50;99.90
46676;DHT22;32412;51.478;5.694;2024-03-02T06:55:09;6.50;99.90
46676;DHT22;32412;51.478;5.694;2024-03-02T06:57:47;6.50;99.90
46676;DHT22;32412;51.478;5.694;2024-03-02T07:00:18;6.60;99.90
46676;DHT22;32412;51.478;5.694;2024-03-02T07:02:47;6.50;99.90
46676;DHT22;32412;51.478;5.694;2024-03-02T07:05:18;6.60;99.90
46676;DHT22;32412;51.478;5.694;2024-03-02T07:07:43;6.70;99.90
46676;DHT22;32412;51.478;5.694;2024-03-02T07:10:09;6.80;99.90
46676;DHT22;32412;51.478;5.694;2024-03-02T07:12:35;6.80;99.90
46676;DHT22;32412;51.478;5.694;2024-03-02T07:15:01;6.90;99.90
46676;DHT22;32412;51.478;5.694;2024-03-02T07:17:32;6.90;99.90
46676;DHT22;32412;51.478;5.694;2024-03-02T07:19:58;7.00;99.90
46676;DHT22;32412;51.478;5.694;2024-03-02T07:22:24;7.10;99.90
46676;DHT22;32412;51.478;5.694;2024-03-02T07:24:50;7.20;99.90
46676;DHT22;32412;51.478;5.694;2024-03-02T07:27:16;7.30;99.90
46676;DHT22;32412;51.478;5.694;2024-03-02T07:29:43;7.50;99.90
46676;DHT22;32412;51.478;5.694;2024-03-02T07:32:10;7.60;99.90
46676;DHT22;32412;51.478;5.694;2024-03-02T07:34:36;7.70;99.90
46676;DHT22;32412;51.478;5.694;2024-03-02T07:37:02;7.80;99.90
46676;DHT22;32412;51.478;5.694;2024-03-02T07:39:29;7.90;99.90
46676;DHT22;32412;51.478;5.694;2024-03-02T07:42:02;8.00;99.90
46676;DHT22;32412;51.478;5.694;2024-03-02T07:44:28;8.10;99.90
46676;DHT22;32412;51.478;5.694;2024-03-02T07:46:54;8.10;99.90
46676;DHT22;32412;51.478;5.694;2024-03-02T07:49:22;8.20;99.90
46676;DHT22;32412;51.478;5.694;2024-03-02T07:51:49;8.30;99.90
46676;DHT22;32412;51.478;5.694;2024-03-02T07:54:14;8.20;99.90
46676;DHT22;32412;51.478;5.694;2024-03-02T07:56:43;8.20;99.90
46676;DHT22;32412;51.478;5.694;2024-03-02T07:59:13;8.30;99.90
46676;DHT22;32412;51.478;5.694;2024-03-02T08:01:39;8.30;99.90
46676;DHT22;32412;51.478;5.694;2024-03-02T08:04:04;8.30;99.90
46676;DHT22;32412;51.478;5.694;2024-03-02T08:06:33;8.30;99.90
46676;DHT22;32412;51.478;5.694;2024-03-02T08:09:02;8.30;99.90
46676;DHT22;32412;51.478;5.694;2024-03-02T08:11:34;8.30;99.90
46676;DHT22;32412;51.478;5.694;2024-03-02T08:14:03;8.20;99.90
46676;DHT22;32412;51.478;5.694;2024-03-02T08:16:32;8.20;99.90
46676;DHT22;32412;51.478;5.694;2024-03-02T08:19:01;8.20;99.90
46676;DHT22;32412;51.478;5.694;2024-03-02T08:21:31;8.20;99.90
46676;DHT22;32412;51.478;5.694;2024-03-02T08:24:02;8.20;99.90
46676;DHT22;32412;51.478;5.694;2024-03-02T08:26:31;8.30;99.90
46676;DHT22;32412;51.478;5.694;2024-03-02T08:29:01;8.40;99.90
46676;DHT22;32412;51.478;5.694;2024-03-02T08:31:38;8.40;99.90
46676;DHT22;32412;51.478;5.694;2024-03-02T08:34:04;8.50;99.90
46676;DHT22;32412;51.478;5.694;2024-03-02T08:36:32;8.50;99.90
46676;DHT22;32412;51.478;5.694;2024-03-02T08:38:58;8.50;99.90
46676;DHT22;32412;51.478;5.694;2024-03-02T08:41:23;8.60;99.90
46676;DHT22;32412;51.478;5.694;2024-03-02T08:43:52;8.70;99.90
46676;DHT22;32412;51.478;5.694;2024-03-02T08:46:18;8.70;99.90
46676;DHT22;32412;51.478;5.694;2024-03-02T08:48:43;8.80;99.90
46676;DHT22;32412;51.478;5.694;2024-03-02T08:51:09;8.90;99.90
46676;DHT22;32412;51.478;5.694;2024-03-02T08:53:37;9.00;99.90
46676;DHT22;32412;51.478;5.694;2024-03-02T08:56:04;9.00;99.90
46676;DHT22;32412;51.478;5.694;2024-03-02T08:58:34;9.10;99.90
46676;DHT22;32412;51.478;5.694;2024-03-02T09:01:02;9.10;99.90
46676;DHT22;32412;51.478;5.694;2024-03-02T09:03:28;9.20;99.90
46676;DHT22;32412;51.478;5.694;2024-03-02T09:05:53;9.30;99.90
46676;DHT22;32412;51.478;5.694;2024-03-02T09:08:22;9.40;99.90
46676;DHT22;32412;51.478;5.694;2024-03-02T09:10:47;9.50;99.90
46676;DHT22;32412;51.478;5.694;2024-03-02T09:13:13;9.60;99.90
46676;DHT22;32412;51.478;5.694;2024-03-02T09:15:39;9.70;99.90
46676;DHT22;32412;51.478;5.694;2024-03-02T09:18:08;9.80;99.90
46676;DHT22;32412;51.478;5.694;2024-03-02T09:20:34;9.90;99.90
46676;DHT22;32412;51.478;5.694;2024-03-02T09:23:03;10.10;99.90
46676;DHT22;32412;51.478;5.694;2024-03-02T09:25:31;10.10;99.90
46676;DHT22;32412;51.478;5.694;2024-03-02T09:28:06;10.20;99.90
46676;DHT22;32412;51.478;5.694;2024-03-02T09:30:36;10.30;99.90
46676;DHT22;32412;51.478;5.694;2024-03-02T09:36:24;10.40;99.90
46676;DHT22;32412;51.478;5.694;2024-03-02T09:38:52;10.40;99.90
46676;DHT22;32412;51.478;5.694;2024-03-02T09:41:21;10.50;99.90
46676;DHT22;32412;51.478;5.694;2024-03-02T09:47:11;10.90;99.90
46676;DHT22;32412;51.478;5.694;2024-03-02T09:49:41;11.20;99.90
46676;DHT22;32412;51.478;5.694;2024-03-02T09:52:07;11.60;99.90
46676;DHT22;32412;51.478;5.694;2024-03-02T09:54:43;11.90;99.90
46676;DHT22;32412;51.478;5.694;2024-03-02T09:57:13;12.30;99.90
46676;DHT22;32412;51.478;5.694;2024-03-02T09:59:41;12.80;99.90
46676;DHT22;32412;51.478;5.694;2024-03-02T10:02:13;13.30;97.60
46676;DHT22;32412;51.478;5.694;2024-03-02T10:08:02;13.90;96.10
46676;DHT22;32412;51.478;5.694;2024-03-02T10:10:41;14.50;95.50
46676;DHT22;32412;51.478;5.694;2024-03-02T10:13:12;14.80;93.70
46676;DHT22;32412;51.478;5.694;2024-03-02T10:15:42;14.60;93.60
46676;DHT22;32412;51.478;5.694;2024-03-02T10:18:13;14.40;93.70
46676;DHT22;32412;51.478;5.694;2024-03-02T10:20:41;14.30;93.40
46676;DHT22;32412;51.478;5.694;2024-03-02T10:23:15;14.40;93.70
46676;DHT22;32412;51.478;5.694;2024-03-02T10:25:42;14.50;93.50
46676;DHT22;32412;51.478;5.694;2024-03-02T10:28:11;14.50;93.30
46676;DHT22;32412;51.478;5.694;2024-03-02T10:30:43;14.40;93.50
46676;DHT22;32412;51.478;5.694;2024-03-02T10:33:12;14.70;93.40
46676;DHT22;32412;51.478;5.694;2024-03-02T10:35:41;15.10;92.10
46676;DHT22;32412;51.478;5.694;2024-03-02T10:38:16;15.10;92.40
46676;DHT22;32412;51.478;5.694;2024-03-02T10:40:47;15.70;91.10
46676;DHT22;32412;51.478;5.694;2024-03-02T10:43:14;15.70;91.20
46676;DHT22;32412;51.478;5.694;2024-03-02T10:45:41;16.20;91.10
46676;DHT22;32412;51.478;5.694;2024-03-02T10:48:13;16.20;90.20
46676;DHT22;32412;51.478;5.694;2024-03-02T10:50:39;16.60;89.20
46676;DHT22;32412;51.478;5.694;2024-03-02T10:53:11;16.60;88.10
46676;DHT22;32412;51.478;5.694;2024-03-02T10:55:37;16.20;88.10
46676;DHT22;32412;51.478;5.694;2024-03-02T10:58:04;16.20;89.70
46676;DHT22;32412;51.478;5.694;2024-03-02T11:00:34;16.40;87.70
46676;DHT22;32412;51.478;5.694;2024-03-02T11:06:36;17.00;85.60
46676;DHT22;32412;51.478;5.694;2024-03-02T11:09:07;17.00;85.20
46676;DHT22;32412;51.478;5.694;2024-03-02T11:11:42;16.50;84.90
46676;DHT22;32412;51.478;5.694;2024-03-02T11:14:13;16.50;86.20
46676;DHT22;32412;51.478;5.694;2024-03-02T11:16:39;17.10;85.30
46676;DHT22;32412;51.478;5.694;2024-03-02T11:19:16;17.10;83.80
46676;DHT22;32412;51.478;5.694;2024-03-02T11:21:42;17.20;83.80
46676;DHT22;32412;51.478;5.694;2024-03-02T11:26:52;17.60;82.60
46676;DHT22;32412;51.478;5.694;2024-03-02T11:32:13;18.30;80.00
46676;DHT22;32412;51.478;5.694;2024-03-02T11:34:46;18.20;80.70
46676;DHT22;32412;51.478;5.694;2024-03-02T11:37:13;17.80;81.00
46676;DHT22;32412;51.478;5.694;2024-03-02T11:39:40;18.00;80.20
46676;DHT22;32412;51.478;5.694;2024-03-02T11:42:07;17.70;80.00
46676;DHT22;32412;51.478;5.694;2024-03-02T11:44:35;17.80;79.50
46676;DHT22;32412;51.478;5.694;2024-03-02T11:47:06;18.50;81.30
46676;DHT22;32412;51.478;5.694;2024-03-02T11:49:51;18.40;78.10
46676;DHT22;32412;51.478;5.694;2024-03-02T11:52:27;18.40;78.70
46676;DHT22;32412;51.478;5.694;2024-03-02T11:54:56;18.10;78.80
46676;DHT22;32412;51.478;5.694;2024-03-02T11:57:22;18.60;78.90
46676;DHT22;32412;51.478;5.694;2024-03-02T11:59:53;18.70;78.50
46676;DHT22;32412;51.478;5.694;2024-03-02T12:02:22;18.90;76.30
46676;DHT22;32412;51.478;5.694;2024-03-02T12:04:51;19.00;76.30
46676;DHT22;32412;51.478;5.694;2024-03-02T12:07:23;18.50;75.30
46676;DHT22;32412;51.478;5.694;2024-03-02T12:10:11;18.10;76.50
46676;DHT22;32412;51.478;5.694;2024-03-02T12:12:41;17.50;77.20
46676;DHT22;32412;51.478;5.694;2024-03-02T12:15:10;17.70;77.60
46676;DHT22;32412;51.478;5.694;2024-03-02T12:17:36;18.20;76.50
46676;DHT22;32412;51.478;5.694;2024-03-02T12:20:05;17.70;76.10
46676;DHT22;32412;51.478;5.694;2024-03-02T12:22:34;17.70;77.20
46676;DHT22;32412;51.478;5.694;2024-03-02T12:25:02;17.50;76.90
46676;DHT22;32412;51.478;5.694;2024-03-02T12:27:28;16.90;79.60
46676;DHT22;32412;51.478;5.694;2024-03-02T12:29:54;16.90;79.10
46676;DHT22;32412;51.478;5.694;2024-03-02T12:32:23;17.30;78.80
46676;DHT22;32412;51.478;5.694;2024-03-02T12:34:53;17.00;78.70
46676;DHT22;32412;51.478;5.694;2024-03-02T12:37:20;17.00;78.70
46676;DHT22;32412;51.478;5.694;2024-03-02T12:39:46;17.20;78.30
46676;DHT22;32412;51.478;5.694;2024-03-02T12:42:12;17.50;78.00
46676;DHT22;32412;51.478;5.694;2024-03-02T12:44:37;17.90;77.60
46676;DHT22;32412;51.478;5.694;2024-03-02T12:47:05;18.30;76.50
46676;DHT22;32412;51.478;5.694;2024-03-02T12:49:35;18.60;76.50
46676;DHT22;32412;51.478;5.694;2024-03-02T12:52:01;18.60;75.80
46676;DHT22;32412;51.478;5.694;2024-03-02T12:54:27;18.80;74.50
46676;DHT22;32412;51.478;5.694;2024-03-02T12:56:53;18.60;76.10
46676;DHT22;32412;51.478;5.694;2024-03-02T12:59:23;18.20;75.50
46676;DHT22;32412;51.478;5.694;2024-03-02T13:01:52;17.50;76.90
46676;DHT22;32412;51.478;5.694;2024-03-02T13:04:22;16.90;77.80
46676;DHT22;32412;51.478;5.694;2024-03-02T13:06:49;16.90;79.10
46676;DHT22;32412;51.478;5.694;2024-03-02T13:09:15;16.80;77.90
46676;DHT22;32412;51.478;5.694;2024-03-02T13:11:42;16.60;80.60
46676;DHT22;32412;51.478;5.694;2024-03-02T13:14:07;16.60;79.60
46676;DHT22;32412;51.478;5.694;2024-03-02T13:16:41;16.80;78.60
46676;DHT22;32412;51.478;5.694;2024-03-02T13:19:11;17.20;78.00
46676;DHT22;32412;51.478;5.694;2024-03-02T13:21:37;17.20;77.10
46676;DHT22;32412;51.478;5.694;2024-03-02T13:24:04;17.10;78.00
46676;DHT22;32412;51.478;5.694;2024-03-02T13:26:33;17.60;77.50
46676;DHT22;32412;51.478;5.694;2024-03-02T13:28:59;18.10;76.10
46676;DHT22;32412;51.478;5.694;2024-03-02T13:31:27;18.20;76.20
46676;DHT22;32412;51.478;5.694;2024-03-02T13:33:53;17.90;76.10
46676;DHT22;32412;51.478;5.694;2024-03-02T13:36:19;18.00;77.70
46676;DHT22;32412;51.478;5.694;2024-03-02T13:38:44;18.30;76.30
46676;DHT22;32412;51.478;5.694;2024-03-02T13:41:13;18.40;75.20
46676;DHT22;32412;51.478;5.694;2024-03-02T13:43:38;18.50;74.70
46676;DHT22;32412;51.478;5.694;2024-03-02T13:46:05;18.70;74.50
46676;DHT22;32412;51.478;5.694;2024-03-02T13:48:31;19.00;73.30
46676;DHT22;32412;51.478;5.694;2024-03-02T13:50:57;18.20;76.60
46676;DHT22;32412;51.478;5.694;2024-03-02T13:53:23;18.00;75.10
46676;DHT22;32412;51.478;5.694;2024-03-02T13:55:49;17.20;76.10
46676;DHT22;32412;51.478;5.694;2024-03-02T13:58:15;16.70;78.10
46676;DHT22;32412;51.478;5.694;2024-03-02T14:00:41;16.90;78.30
46676;DHT22;32412;51.478;5.694;2024-03-02T14:03:06;17.50;77.50
46676;DHT22;32412;51.478;5.694;2024-03-02T14:05:33;18.20;76.40
46676;DHT22;32412;51.478;5.694;2024-03-02T14:07:58;18.60;75.10
46676;DHT22;32412;51.478;5.694;2024-03-02T14:10:26;18.60;75.80
46676;DHT22;32412;51.478;5.694;2024-03-02T14:12:52;18.60;76.00
46676;DHT22;32412;51.478;5.694;2024-03-02T14:15:18;18.60;77.20
46676;DHT22;32412;51.478;5.694;2024-03-02T14:17:44;18.70;74.50
46676;DHT22;32412;51.478;5.694;2024-03-02T14:20:12;18.70;75.90
46676;DHT22;32412;51.478;5.694;2024-03-02T14:22:39;18.60;75.20
46676;DHT22;32412;51.478;5.694;2024-03-02T14:25:07;18.90;75.20
46676;DHT22;32412;51.478;5.694;2024-03-02T14:27:33;18.80;73.90
46676;DHT22;32412;51.478;5.694;2024-03-02T14:29:59;18.60;75.10
46676;DHT22;32412;51.478;5.694;2024-03-02T14:32:24;18.60;76.60
46676;DHT22;32412;51.478;5.694;2024-03-02T14:34:50;18.70;76.10
46676;DHT22;32412;51.478;5.694;2024-03-02T14:37:16;18.40;75.40
46676;DHT22;32412;51.478;5.694;2024-03-02T14:39:42;17.90;76.60
46676;DHT22;32412;51.478;5.694;2024-03-02T14:42:08;17.40;78.40
46676;DHT22;32412;51.478;5.694;2024-03-02T14:44:34;17.20;80.50
46676;DHT22;32412;51.478;5.694;2024-03-02T14:47:01;16.70;80.30
46676;DHT22;32412;51.478;5.694;2024-03-02T14:49:28;16.40;81.70
46676;DHT22;32412;51.478;5.694;2024-03-02T14:51:54;16.20;81.60
46676;DHT22;32412;51.478;5.694;2024-03-02T14:54:20;15.90;84.60
46676;DHT22;32412;51.478;5.694;2024-03-02T14:56:46;15.50;84.60
46676;DHT22;32412;51.478;5.694;2024-03-02T14:59:12;15.40;85.60
46676;DHT22;32412;51.478;5.694;2024-03-02T15:01:38;15.60;86.30
46676;DHT22;32412;51.478;5.694;2024-03-02T15:04:04;15.70;86.70
46676;DHT22;32412;51.478;5.694;2024-03-02T15:06:32;15.80;85.10
46676;DHT22;32412;51.478;5.694;2024-03-02T15:08:58;15.60;85.80
46676;DHT22;32412;51.478;5.694;2024-03-02T15:11:24;15.50;86.60
46676;DHT22;32412;51.478;5.694;2024-03-02T15:13:50;15.30;87.70
46676;DHT22;32412;51.478;5.694;2024-03-02T15:16:16;15.20;88.50
46676;DHT22;32412;51.478;5.694;2024-03-02T15:18:42;15.30;89.80
46676;DHT22;32412;51.478;5.694;2024-03-02T15:21:08;15.40;90.00
46676;DHT22;32412;51.478;5.694;2024-03-02T15:23:33;15.40;88.90
46676;DHT22;32412;51.478;5.694;2024-03-02T15:25:59;15.30;89.50
46676;DHT22;32412;51.478;5.694;2024-03-02T15:28:25;15.30;90.10
46676;DHT22;32412;51.478;5.694;2024-03-02T15:30:51;15.60;89.50
46676;DHT22;32412;51.478;5.694;2024-03-02T15:33:17;15.70;89.00
46676;DHT22;32412;51.478;5.694;2024-03-02T15:35:46;15.50;88.40
46676;DHT22;32412;51.478;5.694;2024-03-02T15:38:12;15.50;88.80
46676;DHT22;32412;51.478;5.694;2024-03-02T15:40:40;15.30;88.80
46676;DHT22;32412;51.478;5.694;2024-03-02T15:43:09;15.40;89.50
46676;DHT22;32412;51.478;5.694;2024-03-02T15:45:35;15.50;88.90
46676;DHT22;32412;51.478;5.694;2024-03-02T15:48:03;15.80;87.50
46676;DHT22;32412;51.478;5.694;2024-03-02T15:50:32;16.10;87.90
46676;DHT22;32412;51.478;5.694;2024-03-02T15:52:58;16.20;86.20
46676;DHT22;32412;51.478;5.694;2024-03-02T15:55:28;16.00;86.20
46676;DHT22;32412;51.478;5.694;2024-03-02T15:57:54;15.90;86.90
46676;DHT22;32412;51.478;5.694;2024-03-02T16:00:22;15.50;89.40
46676;DHT22;32412;51.478;5.694;2024-03-02T16:02:48;15.10;90.20
46676;DHT22;32412;51.478;5.694;2024-03-02T16:05:14;15.00;91.00
46676;DHT22;32412;51.478;5.694;2024-03-02T16:07:42;14.80;91.20
46676;DHT22;32412;51.478;5.694;2024-03-02T16:10:08;14.60;91.50
46676;DHT22;32412;51.478;5.694;2024-03-02T16:12:34;14.40;91.80
46676;DHT22;32412;51.478;5.694;2024-03-02T16:15:02;14.30;92.30
46676;DHT22;32412;51.478;5.694;2024-03-02T16:17:28;14.20;93.20
46676;DHT22;32412;51.478;5.694;2024-03-02T16:19:54;14.10;93.00
46676;DHT22;32412;51.478;5.694;2024-03-02T16:22:20;14.00;93.00
46676;DHT22;32412;51.478;5.694;2024-03-02T16:24:45;14.00;93.70
46676;DHT22;32412;51.478;5.694;2024-03-02T16:27:11;14.10;93.90
46676;DHT22;32412;51.478;5.694;2024-03-02T16:29:37;14.10;94.00
46676;DHT22;32412;51.478;5.694;2024-03-02T16:32:03;14.00;94.10
46676;DHT22;32412;51.478;5.694;2024-03-02T16:34:29;14.00;94.00
46676;DHT22;32412;51.478;5.694;2024-03-02T16:36:55;13.90;94.50
46676;DHT22;32412;51.478;5.694;2024-03-02T16:39:22;13.80;94.70
46676;DHT22;32412;51.478;5.694;2024-03-02T16:41:47;13.70;95.40
46676;DHT22;32412;51.478;5.694;2024-03-02T16:44:13;13.60;95.60
46676;DHT22;32412;51.478;5.694;2024-03-02T16:46:42;13.60;95.60
46676;DHT22;32412;51.478;5.694;2024-03-02T16:49:07;13.50;96.00
46676;DHT22;32412;51.478;5.694;2024-03-02T16:51:43;13.40;96.40
46676;DHT22;32412;51.478;5.694;2024-03-02T16:54:09;13.30;96.80
46676;DHT22;32412;51.478;5.694;2024-03-02T16:56:44;13.30;97.20
46676;DHT22;32412;51.478;5.694;2024-03-02T16:59:12;13.20;97.50